Time;durP1;ratioP1;P1;durP2;ratioP2;P2;SDS_P1;SDS_P2;PMS_P1;PMS_P2;Temp;Humidity;BMP_temperature;BMP_pressure;BME280_temperature;BME280_humidity;BME280_pressure;Samples;Min_cycle;Max_cycle;Signal;HPM_P1;HPM_P2
2023/01/08 00:00:49;;;;;;;10.35;5.68;;;2.30;65.90;;;;;;5016560;28;45966;-63
2023/01/08 00:03:15;;;;;;;9.47;5.30;;;2.30;66.10;;;;;;5016271;28;47168;-62
2023/01/08 00:05:40;;;;;;;7.83;5.10;;;2.30;65.70;;;;;;5016572;28;46377;-63
2023/01/08 00:08:07;;;;;;;8.70;5.00;;;2.30;66.70;;;;;;5016900;28;46527;-63
2023/01/08 00:10:34;;;;;;;9.90;5.35;;;2.30;66.80;;;;;;5017365;28;46681;-63
2023/01/08 00:13:00;;;;;;;10.75;5.63;;;2.30;66.80;;;;;;5017933;28;46363;-63
2023/01/08 00:15:26;;;;;;;10.30;6.07;;;2.30;66.80;;;;;;5017303;28;46431;-62
2023/01/08 00:17:51;;;;;;;9.13;5.43;;;2.20;65.60;;;;;;5018332;28;46431;-63
2023/01/08 00:20:17;;;;;;;8.10;5.27;;;2.20;66.80;;;;;;5017384;28;46458;-62
2023/01/08 00:22:42;;;;;;;9.03;5.43;;;2.30;67.00;;;;;;5017717;28;46609;-62
2023/01/08 00:25:08;;;;;;;9.30;5.57;;;2.00;67.00;;;;;;5017371;28;46396;-63
2023/01/08 00:27:34;;;;;;;10.00;5.50;;;2.00;66.10;;;;;;5016319;28;46804;-62
2023/01/08 00:29:59;;;;;;;11.70;5.10;;;2.00;67.10;;;;;;5017097;28;46502;-64
2023/01/08 00:32:25;;;;;;;15.27;4.30;;;2.00;67.00;;;;;;5017157;28;47145;-63
2023/01/08 00:34:53;;;;;;;7.47;4.40;;;2.00;67.00;;;;;;5015177;28;46628;-64
2023/01/08 00:37:19;;;;;;;7.18;4.10;;;2.00;65.80;;;;;;5016772;28;46618;-62
2023/01/08 00:39:44;;;;;;;7.00;4.60;;;2.10;66.90;;;;;;5017031;28;46347;-63
2023/01/08 00:42:11;;;;;;;12.90;4.70;;;2.10;66.70;;;;;;5017546;28;46381;-63
2023/01/08 00:44:36;;;;;;;9.35;5.20;;;2.10;66.90;;;;;;5015431;28;46324;-63
2023/01/08 00:47:02;;;;;;;9.83;5.57;;;2.10;65.80;;;;;;5016582;28;46383;-61
2023/01/08 00:49:28;;;;;;;9.43;5.10;;;2.10;66.90;;;;;;5017199;28;46366;-61
2023/01/08 00:51:54;;;;;;;6.87;4.27;;;2.20;66.90;;;;;;5016994;28;46573;-61
2023/01/08 00:54:19;;;;;;;6.87;4.40;;;2.10;67.00;;;;;;5017167;28;46776;-61
2023/01/08 00:56:45;;;;;;;9.20;4.50;;;2.00;66.90;;;;;;5016020;28;46581;-61
2023/01/08 00:59:10;;;;;;;6.93;3.97;;;1.90;66.90;;;;;;5017610;28;46495;-62
2023/01/08 01:01:36;;;;;;;7.30;4.83;;;1.90;66.90;;;;;;5018219;28;46509;-63
2023/01/08 01:04:02;;;;;;;6.47;3.70;;;2.00;66.90;;;;;;5020358;28;46515;-62
2023/01/08 01:06:27;;;;;;;6.97;4.10;;;2.00;66.80;;;;;;5019510;28;46448;-63
2023/01/08 01:08:53;;;;;;;6.43;3.90;;;2.00;66.70;;;;;;5020556;28;47108;-62
2023/01/08 01:11:21;;;;;;;7.07;4.00;;;2.10;66.70;;;;;;5019577;28;46461;-63
2023/01/08 01:13:47;;;;;;;6.53;3.85;;;2.20;66.70;;;;;;5020086;28;46666;-63
2023/01/08 01:16:13;;;;;;;4.70;3.35;;;2.20;67.80;;;;;;5020165;28;46378;-62
2023/01/08 01:18:39;;;;;;;7.43;3.90;;;2.20;66.70;;;;;;5020051;28;46976;-63
2023/01/08 01:21:21;;;;;;;8.37;4.00;;;2.00;66.90;;;;;;5019929;28;46493;-63
2023/01/08 01:23:47;;;;;;;7.05;3.70;;;1.90;67.30;;;;;;5019577;28;46425;-63
2023/01/08 01:26:18;;;;;;;5.97;4.20;;;1.80;67.60;;;;;;5020219;28;46471;-63
2023/01/08 01:28:47;;;;;;;5.95;3.63;;;1.70;67.70;;;;;;5021104;28;46353;-62
2023/01/08 01:31:13;;;;;;;6.35;4.03;;;1.70;67.80;;;;;;5021274;28;46291;-62
2023/01/08 01:33:39;;;;;;;8.43;4.22;;;1.70;67.60;;;;;;5020313;28;46304;-62
2023/01/08 01:36:06;;;;;;;5.82;3.58;;;1.60;66.50;;;;;;5020181;28;45902;-63
2023/01/08 01:38:32;;;;;;;5.38;3.70;;;1.60;67.60;;;;;;5018315;28;46585;-63
2023/01/08 01:40:57;;;;;;;6.77;3.90;;;1.60;67.50;;;;;;5019231;28;46672;-63
2023/01/08 01:43:38;;;;;;;6.77;3.90;;;1.60;67.50;;;;;;5018292;28;45912;-62
2023/01/08 01:46:15;;;;;;;5.43;3.95;;;1.50;68.50;;;;;;5019568;28;46661;-63
2023/01/08 01:48:41;;;;;;;5.60;3.70;;;1.60;67.50;;;;;;5018727;28;45781;-63
2023/01/08 01:51:06;;;;;;;5.63;3.20;;;1.50;67.30;;;;;;5019200;28;46459;-62
2023/01/08 01:53:35;;;;;;;9.37;3.27;;;1.60;67.40;;;;;;5019515;28;46581;-63
2023/01/08 01:56:03;;;;;;;4.45;2.70;;;1.70;66.40;;;;;;5018777;28;46528;-62
2023/01/08 01:58:31;;;;;;;10.73;3.40;;;1.70;67.40;;;;;;5017758;28;46518;-62
2023/01/08 02:01:01;;;;;;;10.10;3.20;;;1.70;67.50;;;;;;5018823;28;46491;-63
2023/01/08 02:03:31;;;;;;;6.72;3.03;;;1.80;67.40;;;;;;5017651;28;46426;-62
2023/01/08 02:06:05;;;;;;;4.35;2.83;;;1.80;67.40;;;;;;5019218;28;46749;-62
2023/01/08 02:09:01;;;;;;;6.35;3.90;;;1.80;67.20;;;;;;5017061;28;46494;-61
2023/01/08 02:11:47;;;;;;;5.13;2.83;;;1.70;67.10;;;;;;5018383;28;46226;-61
2023/01/08 02:14:38;;;;;;;4.45;2.67;;;1.70;67.20;;;;;;5016452;28;46820;-63
2023/01/08 02:17:09;;;;;;;4.45;2.80;;;1.60;66.30;;;;;;5020240;28;46381;-62
2023/01/08 02:19:56;;;;;;;4.03;2.70;;;1.60;67.30;;;;;;5019394;28;46599;-63
2023/01/08 02:22:46;;;;;;;6.05;2.70;;;1.60;67.40;;;;;;5020527;28;46380;-63
2023/01/08 02:25:28;;;;;;;5.72;3.20;;;1.50;67.30;;;;;;5019795;28;46632;-62
2023/01/08 02:27:54;;;;;;;6.03;3.13;;;1.40;66.30;;;;;;5017318;28;46550;-62
2023/01/08 02:30:20;;;;;;;3.92;2.40;;;1.30;67.50;;;;;;5019530;28;46456;-63
2023/01/08 02:32:46;;;;;;;5.10;3.20;;;1.30;67.40;;;;;;5017854;28;46486;-63
2023/01/08 02:35:12;;;;;;;5.63;3.30;;;1.30;67.40;;;;;;5017601;28;46230;-63
2023/01/08 02:37:38;;;;;;;4.57;2.33;;;1.30;66.20;;;;;;5017651;28;46477;-61
2023/01/08 02:40:25;;;;;;;4.93;3.15;;;1.30;67.10;;;;;;5019065;28;46378;-62
2023/01/08 02:43:14;;;;;;;6.95;2.50;;;1.40;67.00;;;;;;5017185;28;46434;-61
2023/01/08 02:45:47;;;;;;;3.13;2.42;;;1.40;65.80;;;;;;5017704;28;46554;-62
2023/01/08 02:48:27;;;;;;;4.88;2.80;;;1.40;66.90;;;;;;5019228;28;46386;-63
2023/01/08 02:51:03;;;;;;;3.85;2.55;;;1.40;66.90;;;;;;5018127;28;45949;-62
2023/01/08 02:53:44;;;;;;;4.22;2.83;;;1.50;66.80;;;;;;5018046;28;46868;-62
2023/01/08 02:56:18;;;;;;;5.00;3.20;;;1.40;66.60;;;;;;5017554;28;46586;-61
2023/01/08 02:58:46;;;;;;;5.07;2.88;;;1.40;66.60;;;;;;5018751;28;46417;-62
2023/01/08 03:01:15;;;;;;;4.25;2.45;;;1.30;66.80;;;;;;5018070;28;46464;-62
2023/01/08 03:03:43;;;;;;;4.53;2.80;;;1.30;66.80;;;;;;5017233;28;47675;-62
2023/01/08 03:06:12;;;;;;;5.38;3.15;;;1.30;66.90;;;;;;5017319;28;45916;-62
2023/01/08 03:08:41;;;;;;;4.32;2.60;;;1.20;66.90;;;;;;5018286;28;45939;-63
2023/01/08 03:11:10;;;;;;;10.10;3.10;;;1.20;67.10;;;;;;5018316;28;46660;-62
2023/01/08 03:13:55;;;;;;;5.60;3.25;;;1.20;67.00;;;;;;5018582;28;47369;-63
2023/01/08 03:16:27;;;;;;;4.88;3.03;;;1.20;67.20;;;;;;5019033;28;46732;-62
2023/01/08 03:19:12;;;;;;;5.75;3.10;;;1.10;67.10;;;;;;5017526;28;46548;-62
2023/01/08 03:21:39;;;;;;;6.25;3.28;;;1.10;67.30;;;;;;5018525;28;45873;-61
2023/01/08 03:24:07;;;;;;;5.13;2.85;;;1.10;67.20;;;;;;5016635;28;46223;-63
2023/01/08 03:26:35;;;;;;;5.50;3.28;;;1.10;67.10;;;;;;5017722;28;46342;-63
2023/01/08 03:29:03;;;;;;;5.72;3.25;;;1.10;67.00;;;;;;5017945;28;46758;-62
2023/01/08 03:31:33;;;;;;;5.43;3.20;;;1.20;66.90;;;;;;5018333;28;46556;-61
2023/01/08 03:34:00;;;;;;;5.50;2.90;;;1.20;66.80;;;;;;5017029;28;46469;-63
2023/01/08 03:36:27;;;;;;;5.93;3.05;;;1.20;66.60;;;;;;5016879;28;46449;-62
2023/01/08 03:39:03;;;;;;;5.57;3.42;;;1.20;66.40;;;;;;5017486;28;46283;-62
2023/01/08 03:41:31;;;;;;;3.67;2.45;;;1.20;66.30;;;;;;5018176;28;46379;-62
2023/01/08 03:43:57;;;;;;;5.53;3.20;;;1.20;66.30;;;;;;5015901;28;46991;-64
2023/01/08 03:46:30;;;;;;;3.90;2.90;;;1.20;66.30;;;;;;5016434;28;46397;-62
2023/01/08 03:48:57;;;;;;;4.18;2.95;;;1.20;66.40;;;;;;5017587;28;46543;-62
2023/01/08 03:51:22;;;;;;;5.15;2.92;;;1.20;66.40;;;;;;5017577;28;46442;-62
2023/01/08 03:53:52;;;;;;;4.30;2.63;;;1.20;66.40;;;;;;5017564;28;46422;-63
2023/01/08 03:56:17;;;;;;;5.53;3.15;;;1.30;66.20;;;;;;5016791;28;46295;-62
2023/01/08 03:58:43;;;;;;;4.23;2.70;;;1.30;66.00;;;;;;5018147;28;46463;-63
2023/01/08 04:01:08;;;;;;;6.57;3.40;;;1.40;65.90;;;;;;5017991;28;46042;-64
2023/01/08 04:03:34;;;;;;;4.30;2.80;;;1.50;65.90;;;;;;5016961;28;46551;-63
2023/01/08 04:06:00;;;;;;;8.03;3.30;;;1.50;65.80;;;;;;5017406;28;46421;-64
2023/01/08 04:08:26;;;;;;;5.50;2.83;;;1.60;65.60;;;;;;5017379;28;46469;-62
2023/01/08 04:10:51;;;;;;;4.73;2.97;;;1.60;65.40;;;;;;5016746;28;45935;-61
2023/01/08 04:13:17;;;;;;;5.00;2.97;;;1.60;65.30;;;;;;5016781;28;46481;-63
2023/01/08 04:15:49;;;;;;;5.63;2.70;;;1.60;65.50;;;;;;5016322;28;45836;-62
2023/01/08 04:18:16;;;;;;;4.45;2.60;;;1.70;65.60;;;;;;5017350;28;46483;-62
2023/01/08 04:20:48;;;;;;;4.32;2.65;;;1.70;65.60;;;;;;5017844;28;46342;-62
2023/01/08 04:23:15;;;;;;;8.45;2.97;;;1.70;65.80;;;;;;5016944;28;46440;-63
2023/01/08 04:25:40;;;;;;;3.95;2.13;;;1.80;65.80;;;;;;5017020;28;46544;-64
2023/01/08 04:28:06;;;;;;;5.10;2.57;;;1.90;65.90;;;;;;5018108;28;46479;-62
2023/01/08 04:30:32;;;;;;;3.70;2.37;;;1.90;66.00;;;;;;5018205;28;46424;-63
2023/01/08 04:32:57;;;;;;;5.47;2.00;;;2.00;66.30;;;;;;5016709;28;46477;-63
2023/01/08 04:35:23;;;;;;;4.67;2.67;;;2.00;66.20;;;;;;5016445;28;46511;-63
2023/01/08 04:37:48;;;;;;;4.83;2.60;;;2.00;66.30;;;;;;5015983;28;46633;-63
2023/01/08 04:40:14;;;;;;;5.23;2.57;;;2.10;66.40;;;;;;5018648;28;46575;-60
2023/01/08 04:42:40;;;;;;;3.87;2.10;;;2.10;66.40;;;;;;5016965;28;46426;-63
2023/01/08 04:45:06;;;;;;;4.03;2.43;;;2.10;66.50;;;;;;5017102;28;46402;-62
2023/01/08 04:47:32;;;;;;;3.08;2.03;;;2.10;66.70;;;;;;5015587;28;46335;-60
2023/01/08 04:49:58;;;;;;;3.13;1.90;;;2.10;66.90;;;;;;5016751;28;46517;-63
2023/01/08 04:52:23;;;;;;;3.43;2.10;;;2.10;66.90;;;;;;5016804;28;47005;-63
2023/01/08 04:54:49;;;;;;;2.53;1.70;;;2.10;66.90;;;;;;5015800;28;46466;-64
2023/01/08 04:57:15;;;;;;;2.67;1.80;;;2.20;67.00;;;;;;5017139;28;45918;-62
2023/01/08 04:59:40;;;;;;;3.10;1.83;;;2.20;66.90;;;;;;5017324;28;46457;-61
2023/01/08 05:02:06;;;;;;;3.67;2.30;;;2.20;67.90;;;;;;5017084;28;46668;-63
2023/01/08 05:04:31;;;;;;;3.40;2.23;;;2.30;66.60;;;;;;5017265;28;46486;-62
2023/01/08 05:06:57;;;;;;;5.40;2.73;;;2.30;66.50;;;;;;5017429;28;45890;-64
2023/01/08 05:09:23;;;;;;;5.10;2.63;;;2.20;66.50;;;;;;5016511;28;46847;-61
2023/01/08 05:11:48;;;;;;;2.80;2.00;;;2.20;66.40;;;;;;5016337;28;46418;-63
2023/01/08 05:14:14;;;;;;;4.17;2.50;;;2.10;66.50;;;;;;5017048;28;46433;-63
2023/01/08 05:16:39;;;;;;;2.73;2.03;;;2.00;66.50;;;;;;5016729;28;46427;-61
2023/01/08 05:19:05;;;;;;;3.07;1.90;;;1.90;68.00;;;;;;5017180;28;45900;-62
2023/01/08 05:21:30;;;;;;;3.30;1.83;;;1.90;66.90;;;;;;5016785;28;46402;-63
2023/01/08 05:23:56;;;;;;;5.17;2.37;;;1.80;67.00;;;;;;5016374;28;46335;-63
2023/01/08 05:26:22;;;;;;;2.57;1.70;;;1.70;67.00;;;;;;5016560;28;46404;-63
2023/01/08 05:28:48;;;;;;;4.43;2.17;;;1.70;67.00;;;;;;5016484;28;46401;-63
2023/01/08 05:31:14;;;;;;;3.10;2.00;;;1.80;67.20;;;;;;5016772;28;46866;-62
2023/01/08 05:33:39;;;;;;;3.95;2.40;;;1.80;66.60;;;;;;5016392;28;45898;-61
2023/01/08 05:36:10;;;;;;;2.50;1.97;;;1.80;66.40;;;;;;5016278;28;46000;-63
2023/01/08 05:38:37;;;;;;;3.35;2.50;;;1.90;66.30;;;;;;5015748;28;46553;-62
2023/01/08 05:41:03;;;;;;;3.70;2.30;;;1.90;66.10;;;;;;5016351;28;47064;-62
2023/01/08 05:43:29;;;;;;;2.75;1.77;;;1.90;65.90;;;;;;5015960;28;46551;-63
2023/01/08 05:45:58;;;;;;;4.53;2.50;;;2.00;64.70;;;;;;5016282;28;46592;-62
2023/01/08 05:48:24;;;;;;;4.80;2.85;;;2.00;65.80;;;;;;5018726;28;46916;-63
2023/01/08 05:50:50;;;;;;;3.60;2.15;;;2.00;65.50;;;;;;5019247;28;48190;-61
2023/01/08 05:53:15;;;;;;;3.00;2.17;;;2.00;65.50;;;;;;5020423;28;46441;-66
2023/01/08 05:55:41;;;;;;;2.43;1.63;;;1.90;64.70;;;;;;5019048;28;46313;-62
2023/01/08 05:58:06;;;;;;;3.10;2.30;;;1.90;65.00;;;;;;5020248;28;46570;-63
2023/01/08 06:00:33;;;;;;;3.33;2.10;;;1.90;65.80;;;;;;5020209;28;46367;-61
2023/01/08 06:02:59;;;;;;;3.53;2.20;;;1.90;65.70;;;;;;5019310;28;46315;-63
2023/01/08 06:05:25;;;;;;;6.97;2.80;;;2.00;65.60;;;;;;5018886;28;46457;-62
2023/01/08 06:07:51;;;;;;;4.03;2.30;;;2.10;65.40;;;;;;5019476;28;46414;-61
2023/01/08 06:10:16;;;;;;;4.80;2.93;;;2.10;65.10;;;;;;5019462;28;46690;-61
2023/01/08 06:12:42;;;;;;;6.47;3.70;;;2.20;65.00;;;;;;5018730;28;46413;-63
2023/01/08 06:15:09;;;;;;;5.50;3.20;;;2.20;64.70;;;;;;5019189;28;46398;-63
2023/01/08 06:17:35;;;;;;;8.63;2.67;;;2.30;64.90;;;;;;5019376;28;46414;-63
2023/01/08 06:20:01;;;;;;;5.87;2.90;;;2.30;64.60;;;;;;5019721;28;46071;-63
2023/01/08 06:22:26;;;;;;;5.57;3.27;;;2.40;64.50;;;;;;5019956;28;46370;-63
2023/01/08 06:24:52;;;;;;;5.73;3.43;;;2.50;64.50;;;;;;5018616;28;46445;-63
2023/01/08 06:27:18;;;;;;;7.60;3.25;;;2.60;64.10;;;;;;5018515;28;46315;-63
2023/01/08 06:29:44;;;;;;;5.03;3.00;;;2.60;64.10;;;;;;5019099;28;47214;-62
2023/01/08 06:32:09;;;;;;;4.93;3.20;;;2.70;64.00;;;;;;5020022;28;46415;-63
2023/01/08 06:34:35;;;;;;;5.60;2.70;;;2.80;63.70;;;;;;5018466;28;46505;-62
2023/01/08 06:37:00;;;;;;;5.97;2.70;;;2.90;63.60;;;;;;5018219;28;46485;-62
2023/01/08 06:39:26;;;;;;;3.50;2.27;;;3.00;63.60;;;;;;5018581;28;46635;-63
2023/01/08 06:41:52;;;;;;;4.13;2.50;;;3.10;63.50;;;;;;5017402;28;46649;-62
2023/01/08 06:44:17;;;;;;;4.50;2.50;;;3.10;63.40;;;;;;5018568;28;46375;-62
2023/01/08 06:46:43;;;;;;;4.53;2.07;;;3.10;63.10;;;;;;5017893;28;46445;-62
2023/01/08 06:49:09;;;;;;;3.30;1.87;;;3.20;63.30;;;;;;5017312;28;46602;-63
2023/01/08 06:51:35;;;;;;;7.87;2.50;;;3.30;63.20;;;;;;5017899;28;46526;-63
2023/01/08 06:54:01;;;;;;;5.05;1.83;;;3.30;63.20;;;;;;5017582;28;46354;-63
2023/01/08 06:56:27;;;;;;;7.07;2.20;;;3.40;63.30;;;;;;5016839;28;46611;-63
2023/01/08 06:58:53;;;;;;;3.50;2.30;;;3.40;63.40;;;;;;5015074;28;47026;-63
2023/01/08 07:01:19;;;;;;;4.87;1.90;;;3.50;63.40;;;;;;5017474;28;46890;-63
2023/01/08 07:03:44;;;;;;;4.70;2.00;;;3.60;63.30;;;;;;5018021;28;46359;-64
2023/01/08 07:06:18;;;;;;;4.10;2.07;;;3.60;63.30;;;;;;5017769;28;46461;-63
2023/01/08 07:08:45;;;;;;;4.65;2.20;;;3.50;63.50;;;;;;5018317;28;46126;-64
2023/01/08 07:11:11;;;;;;;6.68;2.08;;;3.50;63.60;;;;;;5017907;28;46516;-63
2023/01/08 07:13:36;;;;;;;2.70;1.93;;;3.50;63.70;;;;;;5016353;28;45752;-64
2023/01/08 07:16:10;;;;;;;3.30;2.00;;;3.50;63.90;;;;;;5016398;28;46619;-63
2023/01/08 07:18:36;;;;;;;3.97;1.97;;;3.50;63.90;;;;;;5017614;28;47551;-64
2023/01/08 07:21:03;;;;;;;3.13;1.83;;;3.60;63.80;;;;;;5017288;28;46406;-64
2023/01/08 07:23:28;;;;;;;3.15;2.03;;;3.70;63.50;;;;;;5018154;28;45896;-63
2023/01/08 07:25:54;;;;;;;3.23;1.93;;;3.80;62.50;;;;;;5016631;28;46612;-63
2023/01/08 07:28:19;;;;;;;5.40;2.67;;;3.80;63.50;;;;;;5042035;28;47831;-64
2023/01/08 07:30:45;;;;;;;7.07;3.97;;;3.90;63.40;;;;;;5016190;28;47164;-63
2023/01/08 07:33:11;;;;;;;10.10;5.97;;;3.90;63.40;;;;;;5016825;28;46323;-63
2023/01/08 07:35:37;;;;;;;16.27;8.67;;;3.90;63.40;;;;;;5015314;28;45896;-63
2023/01/08 07:38:03;;;;;;;16.93;9.37;;;3.90;63.50;;;;;;5014788;28;46100;-63
2023/01/08 07:40:30;;;;;;;14.17;8.40;;;3.90;63.30;;;;;;5017436;28;46478;-63
2023/01/08 07:43:01;;;;;;;7.63;4.75;;;3.90;63.30;;;;;;5016604;28;46686;-63
2023/01/08 07:45:27;;;;;;;6.73;4.27;;;4.00;63.30;;;;;;5017347;28;46369;-64
2023/01/08 07:47:55;;;;;;;5.95;2.47;;;4.00;63.20;;;;;;5015462;28;46395;-64
2023/01/08 07:50:21;;;;;;;6.10;2.33;;;4.10;63.30;;;;;;5016260;28;46410;-63
2023/01/08 07:52:46;;;;;;;5.63;3.00;;;4.10;63.20;;;;;;5015161;28;46516;-63
2023/01/08 07:55:12;;;;;;;3.13;2.60;;;4.20;63.20;;;;;;5017511;28;45971;-64
2023/01/08 07:57:37;;;;;;;5.30;2.67;;;4.20;63.10;;;;;;5017519;28;46724;-64
2023/01/08 08:00:03;;;;;;;4.03;2.40;;;4.30;63.10;;;;;;5016763;28;46564;-64
2023/01/08 08:02:29;;;;;;;2.28;1.85;;;4.30;62.90;;;;;;5017573;28;46466;-64
2023/01/08 08:04:55;;;;;;;6.73;2.23;;;4.30;62.90;;;;;;5016699;28;45808;-63
2023/01/08 08:07:20;;;;;;;3.70;2.10;;;4.40;62.60;;;;;;5015768;28;46425;-63
2023/01/08 08:09:46;;;;;;;3.37;1.87;;;4.40;62.50;;;;;;5016129;28;46430;-63
2023/01/08 08:12:12;;;;;;;4.57;2.50;;;4.50;62.40;;;;;;5016414;28;46462;-63
2023/01/08 08:14:38;;;;;;;9.67;3.73;;;4.50;62.50;;;;;;5016647;28;45943;-64
2023/01/08 08:17:03;;;;;;;7.13;3.20;;;4.50;62.30;;;;;;5016439;28;45884;-63
2023/01/08 08:19:29;;;;;;;9.37;3.50;;;4.60;62.30;;;;;;5017814;28;46348;-63
2023/01/08 08:21:54;;;;;;;8.53;4.30;;;4.70;62.00;;;;;;5017089;28;46577;-63
2023/01/08 08:24:20;;;;;;;8.23;3.90;;;4.80;61.70;;;;;;5016516;28;46564;-63
2023/01/08 08:26:46;;;;;;;10.20;4.03;;;4.90;61.20;;;;;;5017425;28;46415;-62
2023/01/08 08:29:11;;;;;;;6.70;3.50;;;5.00;61.10;;;;;;5017346;28;46497;-65
2023/01/08 08:31:37;;;;;;;6.90;4.10;;;5.10;61.20;;;;;;5018141;28;46652;-64
2023/01/08 08:34:02;;;;;;;6.43;3.67;;;5.10;61.20;;;;;;5017209;28;46409;-64
2023/01/08 08:36:29;;;;;;;6.60;2.93;;;5.20;61.30;;;;;;5016392;28;47420;-62
2023/01/08 08:38:54;;;;;;;5.97;2.67;;;5.20;61.10;;;;;;5016862;28;46655;-63
2023/01/08 08:41:20;;;;;;;7.70;3.27;;;5.20;60.80;;;;;;5017053;28;46399;-64
2023/01/08 08:43:46;;;;;;;5.87;3.53;;;5.40;61.00;;;;;;5017143;28;46584;-64
2023/01/08 08:46:11;;;;;;;5.03;2.73;;;5.50;60.70;;;;;;5016690;28;46525;-63
2023/01/08 08:48:37;;;;;;;4.43;2.60;;;5.60;60.50;;;;;;5018497;28;46589;-64
2023/01/08 08:51:03;;;;;;;6.60;2.93;;;5.70;60.20;;;;;;5017441;28;46351;-62
2023/01/08 08:53:29;;;;;;;6.67;2.93;;;5.80;60.10;;;;;;5017142;28;46440;-63
2023/01/08 08:55:57;;;;;;;4.27;2.17;;;5.90;60.10;;;;;;5016689;28;46173;-64
2023/01/08 08:58:23;;;;;;;5.70;2.63;;;5.90;59.90;;;;;;5016615;28;46420;-64
2023/01/08 09:00:49;;;;;;;4.27;2.37;;;6.00;60.90;;;;;;5017084;28;46420;-64
2023/01/08 09:03:15;;;;;;;3.20;2.30;;;6.00;59.70;;;;;;5009510;28;46901;-64
2023/01/08 09:05:44;;;;;;;3.77;2.23;;;6.20;58.40;;;;;;5013529;28;47470;-64
2023/01/08 09:08:11;;;;;;;5.10;2.67;;;6.20;59.40;;;;;;5012215;28;46170;-63
2023/01/08 09:10:38;;;;;;;8.20;3.00;;;6.30;59.40;;;;;;5015033;28;46482;-63
2023/01/08 09:13:04;;;;;;;10.70;2.87;;;6.40;58.90;;;;;;5014393;28;46545;-63
2023/01/08 09:15:30;;;;;;;5.47;3.07;;;6.50;58.60;;;;;;5013771;28;46526;-63
2023/01/08 09:17:56;;;;;;;6.73;3.07;;;6.60;58.50;;;;;;5014540;28;45848;-60
2023/01/08 09:20:23;;;;;;;5.30;3.30;;;6.70;58.30;;;;;;5014208;28;46772;-64
2023/01/08 09:22:49;;;;;;;5.43;3.00;;;6.80;57.90;;;;;;5016732;28;46379;-64
2023/01/08 09:25:15;;;;;;;5.73;2.97;;;6.90;57.90;;;;;;5014277;28;47955;-62
2023/01/08 09:27:40;;;;;;;6.03;2.90;;;7.00;57.70;;;;;;5017518;28;46435;-64
2023/01/08 09:30:07;;;;;;;6.97;3.90;;;7.20;57.60;;;;;;5018312;28;46714;-64
2023/01/08 09:32:32;;;;;;;6.57;3.57;;;7.40;57.40;;;;;;5017404;28;46517;-66
2023/01/08 09:34:58;;;;;;;11.33;5.50;;;7.50;56.80;;;;;;5017357;28;46597;-65
2023/01/08 09:37:24;;;;;;;7.57;4.87;;;7.70;56.60;;;;;;5018623;28;46397;-63
2023/01/08 09:39:49;;;;;;;5.87;3.57;;;7.90;56.40;;;;;;5018347;28;46569;-65
2023/01/08 09:42:21;;;;;;;4.90;3.40;;;8.00;56.30;;;;;;5019638;28;46385;-66
2023/01/08 09:44:49;;;;;;;8.37;3.20;;;8.20;56.10;;;;;;5017366;28;46478;-66
2023/01/08 09:47:41;;;;;;;4.40;2.60;;;8.40;56.00;;;;;;5018819;28;46414;-67
2023/01/08 09:50:12;;;;;;;3.80;2.83;;;8.60;55.50;;;;;;5014632;28;46421;-65
2023/01/08 09:52:38;;;;;;;4.93;3.10;;;8.80;56.60;;;;;;5018416;28;46486;-65
2023/01/08 09:55:15;;;;;;;5.10;2.73;;;8.90;55.10;;;;;;5015508;28;46462;-66
2023/01/08 09:57:41;;;;;;;4.70;2.63;;;9.00;55.10;;;;;;5017704;28;45916;-64
2023/01/08 10:00:18;;;;;;;5.30;3.40;;;9.10;55.00;;;;;;5017168;28;46606;-66
2023/01/08 10:02:44;;;;;;;5.50;2.93;;;9.20;54.90;;;;;;5018239;28;45839;-67
2023/01/08 10:05:15;;;;;;;6.60;3.53;;;9.20;55.00;;;;;;5016952;28;47211;-65
2023/01/08 10:07:41;;;;;;;4.93;2.70;;;9.20;54.80;;;;;;5017463;28;47269;-66
2023/01/08 10:10:17;;;;;;;4.47;2.80;;;9.20;55.00;;;;;;5016665;28;46613;-67
2023/01/08 10:12:44;;;;;;;9.13;2.73;;;9.20;55.30;;;;;;5015941;28;46481;-64
2023/01/08 10:15:14;;;;;;;7.27;4.23;;;9.10;55.10;;;;;;5015967;28;46594;-63
2023/01/08 10:18:02;;;;;;;4.97;3.17;;;9.10;55.30;;;;;;5018177;28;46373;-64
2023/01/08 10:20:29;;;;;;;4.50;2.50;;;9.10;55.30;;;;;;5017389;28;46508;-63
2023/01/08 10:23:06;;;;;;;4.97;2.67;;;9.00;55.50;;;;;;5017017;28;45934;-62
2023/01/08 10:25:32;;;;;;;8.10;2.37;;;8.90;55.50;;;;;;5018004;28;46619;-66
2023/01/08 10:28:00;;;;;;;5.33;2.63;;;8.70;55.50;;;;;;5015218;28;45797;-65
2023/01/08 10:30:31;;;;;;;6.17;3.00;;;8.60;55.70;;;;;;5015451;28;46962;-64
2023/01/08 10:33:22;;;;;;;4.70;2.80;;;8.70;55.90;;;;;;5017431;28;46367;-64
2023/01/08 10:36:10;;;;;;;12.73;2.80;;;8.80;54.90;;;;;;5016731;28;47079;-64
2023/01/08 10:38:40;;;;;;;5.33;3.80;;;8.80;55.90;;;;;;5017135;28;46378;-66
2023/01/08 10:41:10;;;;;;;5.97;3.50;;;8.80;55.90;;;;;;5015999;28;46388;-66
2023/01/08 10:43:41;;;;;;;5.77;3.27;;;8.70;55.90;;;;;;5015585;28;46632;-65
2023/01/08 10:46:16;;;;;;;6.00;3.37;;;8.60;55.90;;;;;;5015184;28;46497;-66
2023/01/08 10:48:50;;;;;;;6.80;3.50;;;8.60;55.90;;;;;;5015967;28;46781;-63
2023/01/08 10:51:19;;;;;;;10.00;5.87;;;8.70;55.60;;;;;;5015126;28;46556;-63
2023/01/08 10:53:44;;;;;;;9.83;6.50;;;8.90;55.50;;;;;;5016273;28;46655;-63
2023/01/08 10:56:26;;;;;;;9.47;5.37;;;9.00;55.30;;;;;;5013469;28;46670;-64
2023/01/08 10:58:52;;;;;;;9.63;4.30;;;9.10;54.80;;;;;;5015767;28;46412;-63
2023/01/08 11:01:24;;;;;;;11.47;6.47;;;9.30;54.70;;;;;;5015086;28;45910;-63
2023/01/08 11:03:51;;;;;;;8.43;5.00;;;9.50;54.30;;;;;;5015927;28;45791;-63
2023/01/08 11:06:26;;;;;;;7.90;4.30;;;9.60;53.80;;;;;;5014586;28;46819;-63
2023/01/08 11:09:12;;;;;;;13.23;4.53;;;9.70;53.70;;;;;;5016211;28;46410;-65
2023/01/08 11:11:38;;;;;;;8.03;4.03;;;9.80;53.50;;;;;;5013002;28;46753;-64
2023/01/08 11:14:30;;;;;;;6.17;3.43;;;9.90;53.60;;;;;;5014865;28;46101;-64
2023/01/08 11:16:57;;;;;;;8.93;4.30;;;10.00;52.00;;;;;;5010901;28;47110;-64
2023/01/08 11:19:26;;;;;;;5.63;3.47;;;10.10;51.70;;;;;;5015473;28;46458;-63
2023/01/08 11:22:03;;;;;;;5.87;2.80;;;10.20;51.80;;;;;;5016512;28;46724;-64
2023/01/08 11:24:37;;;;;;;3.53;2.53;;;10.40;52.00;;;;;;5016011;28;46423;-64
2023/01/08 11:27:33;;;;;;;9.70;3.90;;;10.50;52.10;;;;;;5015395;28;46523;-64
2023/01/08 11:30:11;;;;;;;6.00;2.93;;;10.70;51.30;;;;;;5014302;28;46538;-63
2023/01/08 11:32:59;;;;;;;6.23;3.30;;;10.90;51.00;;;;;;5015847;28;46544;-64
2023/01/08 11:35:27;;;;;;;8.00;2.50;;;11.10;50.60;;;;;;5015366;28;46538;-65
2023/01/08 11:37:58;;;;;;;3.43;2.20;;;11.20;50.50;;;;;;5016015;28;46673;-63
2023/01/08 11:40:30;;;;;;;5.87;2.93;;;11.10;50.50;;;;;;5015182;28;46529;-64
2023/01/08 11:43:18;;;;;;;4.57;2.10;;;11.20;50.60;;;;;;5014776;28;46457;-63
2023/01/08 11:46:14;;;;;;;4.80;2.43;;;11.00;50.00;;;;;;5014122;28;46961;-64
2023/01/08 11:48:49;;;;;;;2.83;1.97;;;11.00;51.00;;;;;;5015788;28;46457;-62
2023/01/08 11:51:26;;;;;;;3.37;1.83;;;10.90;51.30;;;;;;5013234;28;46496;-63
2023/01/08 11:54:10;;;;;;;3.20;1.90;;;10.90;51.40;;;;;;5016177;28;46458;-64
2023/01/08 11:56:50;;;;;;;3.80;1.93;;;10.90;51.60;;;;;;5014817;28;46522;-65
2023/01/08 12:00:08;;;;;;;3.40;1.90;;;10.90;51.30;;;;;;5015073;28;46507;-64
2023/01/08 12:02:56;;;;;;;3.40;2.07;;;10.90;51.40;;;;;;4990994;28;46943;-64
2023/01/08 12:05:26;;;;;;;4.83;2.20;;;10.80;51.40;;;;;;5015188;28;46334;-64
2023/01/08 12:08:24;;;;;;;3.47;1.87;;;10.80;51.40;;;;;;5014669;28;46931;-64
2023/01/08 12:11:11;;;;;;;2.87;1.73;;;10.70;51.30;;;;;;5014372;28;47098;-64
2023/01/08 12:13:56;;;;;;;4.00;2.27;;;10.60;51.60;;;;;;5015415;28;46780;-64
2023/01/08 12:16:51;;;;;;;4.40;2.70;;;10.50;51.80;;;;;;5015135;28;46479;-64
2023/01/08 12:19:17;;;;;;;5.07;2.33;;;10.40;52.00;;;;;;5013249;28;46652;-64
2023/01/08 12:21:50;;;;;;;7.10;2.60;;;10.40;52.00;;;;;;5012011;28;46760;-64
2023/01/08 12:24:56;;;;;;;6.33;3.20;;;10.40;51.80;;;;;;5016387;28;46467;-64
2023/01/08 12:27:24;;;;;;;7.73;4.37;;;10.40;51.20;;;;;;5012645;28;45885;-64
2023/01/08 12:30:12;;;;;;;6.80;3.63;;;10.40;51.20;;;;;;5013673;28;46434;-64
2023/01/08 12:32:46;;;;;;;6.53;3.17;;;10.50;51.10;;;;;;5015948;28;47139;-64
2023/01/08 12:35:30;;;;;;;7.50;4.50;;;10.60;51.10;;;;;;5012652;28;46437;-63
2023/01/08 12:38:16;;;;;;;6.93;5.23;;;10.70;50.80;;;;;;5012659;28;46502;-64
2023/01/08 12:40:54;;;;;;;6.03;3.90;;;10.70;50.60;;;;;;5014727;28;46514;-65
2023/01/08 12:43:31;;;;;;;6.63;3.23;;;10.60;50.40;;;;;;5014709;28;46686;-63
2023/01/08 12:46:00;;;;;;;10.57;5.33;;;10.60;50.50;;;;;;5012234;28;46859;-62
2023/01/08 12:48:32;;;;;;;8.43;4.90;;;10.60;50.50;;;;;;5013307;28;46982;-63
2023/01/08 12:51:03;;;;;;;8.27;4.33;;;10.50;50.50;;;;;;5013761;28;46528;-63
2023/01/08 12:53:36;;;;;;;8.17;3.30;;;10.50;50.50;;;;;;5014516;28;46932;-64
2023/01/08 12:56:10;;;;;;;6.40;3.07;;;10.40;49.50;;;;;;5013397;28;46175;-63
2023/01/08 12:58:45;;;;;;;5.77;3.30;;;10.40;50.50;;;;;;5019073;28;46440;-63
2023/01/08 13:01:32;;;;;;;4.53;2.37;;;10.40;50.40;;;;;;5017561;28;46465;-65
2023/01/08 13:04:00;;;;;;;4.90;2.50;;;10.40;50.50;;;;;;5016291;28;46409;-63
2023/01/08 13:06:26;;;;;;;5.67;2.70;;;10.50;50.50;;;;;;5017322;28;46398;-65
2023/01/08 13:08:55;;;;;;;4.60;2.60;;;10.50;50.60;;;;;;5018670;28;46366;-64